Time;durP1;ratioP1;P1;durP2;ratioP2;P2;SDS_P1;SDS_P2;PMS_P1;PMS_P2;Temp;Humidity;BMP_temperature;BMP_pressure;BME280_temperature;BME280_humidity;BME280_pressure;Samples;Min_cycle;Max_cycle;Signal;HPM_P1;HPM_P2
2020/12/14 00:00:11;;;;;;;0.20;0.10;;;;;;;2.73;100.00;99882.00;5032110;28;20475;-52
2020/12/14 00:02:38;;;;;;;0.20;0.10;;;;;;;2.80;100.00;99867.13;5035387;28;20496;-52
2020/12/14 00:05:06;;;;;;;0.20;0.10;;;;;;;2.69;100.00;99856.66;5035388;28;21015;-52
2020/12/14 00:07:32;;;;;;;0.20;0.10;;;;;;;2.71;100.00;99854.03;5031438;28;20479;-51
2020/12/14 00:09:59;;;;;;;0.20;0.13;;;;;;;2.72;100.00;99859.28;5035093;28;20476;-51
2020/12/14 00:12:25;;;;;;;0.20;0.10;;;;;;;2.95;100.00;99874.94;5035593;28;20444;-51
2020/12/14 00:14:51;;;;;;;0.20;0.10;;;;;;;2.81;100.00;99884.63;5035252;28;20822;-51
2020/12/14 00:17:18;;;;;;;0.20;0.10;;;;;;;2.75;100.00;99882.03;5035444;28;20456;-51
2020/12/14 00:19:46;;;;;;;0.20;0.20;;;;;;;2.76;100.00;99894.28;5035031;28;20555;-52
2020/12/14 00:22:12;;;;;;;0.20;0.20;;;;;;;2.71;100.00;99890.75;5035162;28;20487;-51
2020/12/14 00:24:38;;;;;;;0.20;0.10;;;;;;;2.86;100.00;99899.44;5034782;28;20980;-51
2020/12/14 00:27:04;;;;;;;0.20;0.20;;;;;;;2.84;100.00;99895.09;5035415;28;20455;-51
2020/12/14 00:29:30;;;;;;;0.20;0.10;;;;;;;2.80;100.00;99894.25;5035158;28;20499;-51
2020/12/14 00:31:57;;;;;;;0.20;0.10;;;;;;;2.68;100.00;99891.66;5035263;28;20439;-51
2020/12/14 00:34:24;;;;;;;0.20;0.10;;;;;;;3.12;100.00;99894.09;5008244;28;20452;-51
2020/12/14 00:37:07;;;;;;;0.20;0.10;;;;;;;3.27;100.00;99907.13;5034704;28;20463;-51
2020/12/14 00:39:34;;;;;;;0.77;0.77;;;;;;;3.47;100.00;99912.28;5024745;28;20475;-51
2020/12/14 00:42:00;;;;;;;0.20;0.10;;;;;;;3.09;100.00;99894.13;5034363;28;20487;-52
2020/12/14 00:44:26;;;;;;;0.20;0.10;;;;;;;2.94;100.00;99881.06;5024925;28;20470;-51
2020/12/14 00:46:53;;;;;;;0.20;0.10;;;;;;;2.81;100.00;99876.75;5034499;28;20451;-51
2020/12/14 00:49:19;;;;;;;0.20;0.10;;;;;;;2.72;100.00;99882.88;5034631;28;20483;-51
2020/12/14 00:51:45;;;;;;;0.20;0.10;;;;;;;2.79;100.00;99870.63;5034458;28;20535;-51
2020/12/14 00:54:12;;;;;;;0.20;0.20;;;;;;;2.58;100.00;99879.44;5034846;28;20448;-51
2020/12/14 00:56:38;;;;;;;0.30;0.10;;;;;;;2.48;100.00;99864.63;5034319;28;20868;-51
2020/12/14 00:59:04;;;;;;;0.30;0.30;;;;;;;2.29;100.00;99871.66;5034527;28;20475;-51
2020/12/14 01:01:30;;;;;;;0.20;0.10;;;;;;;2.29;100.00;99882.13;5033907;28;20542;-52
2020/12/14 01:03:57;;;;;;;0.20;0.20;;;;;;;2.18;100.00;99878.66;5034639;28;20467;-51
2020/12/14 01:06:23;;;;;;;0.20;0.10;;;;;;;2.22;100.00;99877.78;5034228;28;20455;-51
2020/12/14 01:08:50;;;;;;;0.20;0.10;;;;;;;2.02;100.00;99885.66;5029250;28;20498;-51
2020/12/14 01:11:16;;;;;;;0.20;0.10;;;;;;;1.96;100.00;99885.69;5033694;28;20466;-51
2020/12/14 01:13:45;;;;;;;0.20;0.20;;;;;;;2.17;100.00;99895.25;5033456;28;20451;-53
2020/12/14 01:16:12;;;;;;;0.20;0.10;;;;;;;2.21;100.00;99886.53;5034274;28;20471;-51
2020/12/14 01:18:39;;;;;;;0.20;0.10;;;;;;;2.26;100.00;99890.00;5034161;28;20451;-51
2020/12/14 01:21:05;;;;;;;0.20;0.10;;;;;;;2.11;100.00;99897.91;5033961;28;20452;-51
2020/12/14 01:23:32;;;;;;;0.20;0.10;;;;;;;2.02;100.00;99907.50;5034194;28;20513;-51
2020/12/14 01:25:58;;;;;;;0.20;0.10;;;;;;;2.03;100.00;99905.75;5033872;28;20482;-51
2020/12/14 01:28:24;;;;;;;0.20;0.10;;;;;;;1.97;100.00;99911.00;5034055;28;20509;-51
2020/12/14 01:30:50;;;;;;;0.20;0.17;;;;;;;2.04;100.00;99916.22;5033888;28;20537;-51
2020/12/14 01:33:17;;;;;;;0.20;0.10;;;;;;;2.00;100.00;99904.00;5034122;28;20480;-50
2020/12/14 01:35:43;;;;;;;0.20;0.20;;;;;;;1.98;100.00;99908.38;5033539;28;20445;-51
2020/12/14 01:38:09;;;;;;;0.20;0.10;;;;;;;1.92;100.00;99908.41;5024701;28;21000;-51
2020/12/14 01:40:35;;;;;;;0.20;0.10;;;;;;;1.75;100.00;99899.63;5031994;28;20534;-52
2020/12/14 01:43:01;;;;;;;0.20;0.10;;;;;;;1.83;100.00;99884.81;5024878;28;20499;-51
2020/12/14 01:45:27;;;;;;;0.20;0.20;;;;;;;1.83;100.00;99884.81;5031733;28;20451;-51
2020/12/14 01:48:00;;;;;;;0.20;0.10;;;;;;;1.85;100.00;99879.56;5033826;28;20459;-51
2020/12/14 01:50:27;;;;;;;0.20;0.10;;;;;;;2.29;100.00;99877.75;5033690;28;20464;-51
2020/12/14 01:52:57;;;;;;;0.20;0.10;;;;;;;1.85;100.00;99869.94;5033453;28;20456;-51
2020/12/14 01:55:24;;;;;;;0.30;0.20;;;;;;;1.85;100.00;99883.06;5033462;28;20452;-51
2020/12/14 01:57:50;;;;;;;0.20;0.10;;;;;;;1.93;100.00;99883.06;5033353;28;20456;-51
2020/12/14 02:00:16;;;;;;;0.20;0.10;;;;;;;1.97;100.00;99877.81;5034184;28;20476;-52
2020/12/14 02:02:43;;;;;;;0.20;0.10;;;;;;;1.89;100.00;99870.81;5032962;28;20488;-51
2020/12/14 02:05:09;;;;;;;0.20;0.20;;;;;;;1.81;100.00;99876.06;5033227;28;20452;-52
2020/12/14 02:07:35;;;;;;;0.20;0.10;;;;;;;1.83;100.00;99876.94;5028870;28;20448;-52
2020/12/14 02:10:02;;;;;;;0.20;0.10;;;;;;;1.84;100.00;99876.06;5033143;28;20478;-52
2020/12/14 02:12:29;;;;;;;0.20;0.10;;;;;;;1.96;100.00;99870.81;5033146;28;20455;-54
2020/12/14 02:14:57;;;;;;;0.20;0.10;;;;;;;1.75;100.00;99870.81;5033046;28;20451;-52
2020/12/14 02:17:25;;;;;;;0.20;0.10;;;;;;;1.48;100.00;99864.69;5032913;28;20458;-52
2020/12/14 02:19:54;;;;;;;0.20;0.10;;;;;;;1.46;100.00;99862.94;5032722;28;20475;-53
2020/12/14 02:22:22;;;;;;;0.20;0.20;;;;;;;1.80;100.00;99876.06;5032878;28;20538;-52
2020/12/14 02:25:03;;;;;;;0.20;0.10;;;;;;;1.73;100.00;99869.94;5032475;28;20456;-52
2020/12/14 02:27:31;;;;;;;0.20;0.10;;;;;;;1.90;100.00;99881.28;5032745;28;20998;-51
2020/12/14 02:29:58;;;;;;;0.20;0.10;;;;;;;1.72;100.00;99878.69;5032458;28;20467;-51
2020/12/14 02:32:26;;;;;;;0.20;0.10;;;;;;;1.71;100.00;99872.56;5032711;28;20451;-53
2020/12/14 02:34:55;;;;;;;0.20;0.20;;;;;;;1.81;100.00;99878.69;5032612;28;20451;-52
2020/12/14 02:37:27;;;;;;;0.20;0.10;;;;;;;2.03;100.00;99872.56;5030099;28;20443;-52
2020/12/14 02:39:54;;;;;;;0.20;0.10;;;;;;;1.67;100.00;99859.47;5025275;28;20514;-52
2020/12/14 02:42:22;;;;;;;0.20;0.10;;;;;;;1.60;100.00;99862.94;5029288;28;20488;-51
2020/12/14 02:44:48;;;;;;;0.20;0.10;;;;;;;1.67;100.00;99857.72;5025906;28;20459;-52
2020/12/14 02:47:15;;;;;;;0.20;0.10;;;;;;;1.72;100.00;99852.47;5032668;28;20456;-52
2020/12/14 02:49:42;;;;;;;0.20;0.20;;;;;;;1.60;100.00;99844.63;5032319;28;20475;-53
2020/12/14 02:52:10;;;;;;;0.20;0.20;;;;;;;1.38;100.00;99838.50;5032464;28;20448;-52
2020/12/14 02:54:38;;;;;;;0.20;0.20;;;;;;;1.38;100.00;99834.16;5032162;28;20459;-53
2020/12/14 02:57:04;;;;;;;0.20;0.10;;;;;;;1.47;100.00;99839.38;5032424;28;20964;-54
2020/12/14 02:59:30;;;;;;;0.20;0.10;;;;;;;1.43;100.00;99834.16;5032496;28;20475;-53
2020/12/14 03:01:57;;;;;;;0.20;0.10;;;;;;;1.54;100.00;99836.78;5030805;28;20498;-54
2020/12/14 03:04:23;;;;;;;0.20;0.10;;;;;;;1.45;100.00;99828.03;5032047;28;20448;-54
2020/12/14 03:06:50;;;;;;;0.20;0.10;;;;;;;1.58;100.00;99835.91;5032618;28;20466;-53
2020/12/14 03:09:20;;;;;;;0.20;0.10;;;;;;;1.98;100.00;99837.63;5027937;28;20504;-51
2020/12/14 03:11:48;;;;;;;0.20;0.13;;;;;;;2.04;100.00;99844.59;5032414;28;20452;-51
2020/12/14 03:14:16;;;;;;;0.20;0.10;;;;;;;2.01;100.00;99847.22;5031806;28;20964;-52
2020/12/14 03:16:47;;;;;;;0.20;0.10;;;;;;;2.02;100.00;99852.47;5032100;28;20527;-51
2020/12/14 03:19:14;;;;;;;0.20;0.10;;;;;;;2.11;100.00;99848.97;5031956;28;20833;-51
2020/12/14 03:21:40;;;;;;;0.20;0.10;;;;;;;2.46;100.00;99859.34;5032238;28;20864;-52
2020/12/14 03:24:07;;;;;;;0.20;0.10;;;;;;;2.34;100.00;99844.56;5031819;28;20452;-52
2020/12/14 03:26:34;;;;;;;0.20;0.10;;;;;;;2.34;100.00;99849.78;5032052;28;20459;-52
2020/12/14 03:29:00;;;;;;;0.20;0.10;;;;;;;2.31;100.00;99849.78;5031933;28;20476;-51
2020/12/14 03:31:27;;;;;;;0.50;0.50;;;;;;;2.33;100.00;99852.38;5031899;28;20444;-51
2020/12/14 03:33:55;;;;;;;1.10;1.00;;;;;;;2.27;100.00;99853.28;5031774;28;20455;-52
2020/12/14 03:36:22;;;;;;;0.20;0.10;;;;;;;2.30;100.00;99849.78;5034739;28;20457;-52
2020/12/14 03:38:49;;;;;;;0.20;0.20;;;;;;;2.12;100.00;99849.84;5024986;28;20967;-52
2020/12/14 03:41:16;;;;;;;0.20;0.10;;;;;;;2.12;100.00;99847.22;5036219;28;20454;-52
2020/12/14 03:43:43;;;;;;;4.13;3.50;;;;;;;2.18;100.00;99839.31;5025559;28;21188;-52
2020/12/14 03:46:14;;;;;;;0.20;0.10;;;;;;;2.36;100.00;99842.78;5035938;28;20451;-52
2020/12/14 03:48:40;;;;;;;0.20;0.10;;;;;;;2.50;100.00;99840.13;5036092;28;20459;-54
2020/12/14 03:51:08;;;;;;;0.20;0.10;;;;;;;2.31;100.00;99844.53;5035790;28;20841;-52
2020/12/14 03:53:34;;;;;;;0.20;0.10;;;;;;;2.31;100.00;99846.28;5035423;28;20447;-54
2020/12/14 03:56:01;;;;;;;0.20;0.13;;;;;;;2.33;100.00;99848.06;5035776;28;20570;-52
2020/12/14 03:58:27;;;;;;;0.20;0.20;;;;;;;2.52;100.00;99855.84;5035798;28;20451;-51
2020/12/14 04:00:53;;;;;;;6.17;2.73;;;;;;;2.53;100.00;99849.72;5035779;28;20525;-52
2020/12/14 04:03:19;;;;;;;0.20;0.10;;;;;;;2.61;100.00;99859.34;5035286;28;20491;-52
2020/12/14 04:05:45;;;;;;;0.20;0.10;;;;;;;2.56;100.00;99847.09;5035764;28;20447;-52
2020/12/14 04:08:11;;;;;;;0.20;0.10;;;;;;;2.58;100.00;99848.81;5031214;28;20462;-51
2020/12/14 04:10:38;;;;;;;0.20;0.10;;;;;;;2.61;100.00;99853.22;5035318;28;20478;-51
2020/12/14 04:13:04;;;;;;;0.20;0.10;;;;;;;2.55;100.00;99853.22;5035305;28;20467;-52
2020/12/14 04:15:30;;;;;;;0.20;0.10;;;;;;;2.59;100.00;99854.94;5035652;28;20459;-52
2020/12/14 04:17:56;;;;;;;0.20;0.10;;;;;;;2.70;100.00;99845.28;5035139;28;20451;-52
2020/12/14 04:20:22;;;;;;;0.20;0.10;;;;;;;2.79;100.00;99844.38;5034969;28;20479;-52
2020/12/14 04:22:48;;;;;;;0.20;0.10;;;;;;;2.78;100.00;99843.53;5035282;28;20566;-52
2020/12/14 04:25:16;;;;;;;1.23;1.23;;;;;;;2.72;100.00;99835.66;5035128;28;20895;-51
2020/12/14 04:27:42;;;;;;;0.20;0.10;;;;;;;2.78;100.00;99834.78;5035214;28;20509;-51
2020/12/14 04:30:09;;;;;;;0.20;0.10;;;;;;;2.86;100.00;99838.22;5034998;28;20884;-52
2020/12/14 04:32:35;;;;;;;0.20;0.10;;;;;;;2.91;100.00;99846.97;5034821;28;20451;-52
2020/12/14 04:35:04;;;;;;;0.20;0.10;;;;;;;2.90;100.00;99840.84;5034953;28;20451;-50
2020/12/14 04:37:31;;;;;;;0.20;0.10;;;;;;;2.93;100.00;99848.69;5030021;28;20558;-51
2020/12/14 04:39:57;;;;;;;0.20;0.20;;;;;;;2.94;100.00;99837.31;5027585;28;20487;-51
2020/12/14 04:42:23;;;;;;;0.20;0.10;;;;;;;3.01;100.00;99843.38;5029911;28;20495;-51
2020/12/14 04:44:54;;;;;;;0.20;0.10;;;;;;;3.05;100.00;99841.63;5027835;28;20625;-50
2020/12/14 04:47:21;;;;;;;0.20;0.20;;;;;;;3.06;100.00;99835.50;5034458;28;20448;-51
2020/12/14 04:49:48;;;;;;;0.20;0.10;;;;;;;3.15;100.00;99833.72;5034716;28;20472;-52
2020/12/14 04:52:17;;;;;;;0.43;0.43;;;;;;;3.11;100.00;99825.84;5034908;28;20789;-51
2020/12/14 04:54:50;;;;;;;0.20;0.10;;;;;;;3.14;100.00;99816.19;5034657;28;20451;-51
2020/12/14 04:57:21;;;;;;;0.20;0.10;;;;;;;3.23;100.00;99826.63;5034621;28;20444;-51
2020/12/14 04:59:49;;;;;;;0.20;0.10;;;;;;;3.48;100.00;99821.22;5034578;28;20464;-52
2020/12/14 05:02:16;;;;;;;0.20;0.10;;;;;;;3.14;100.00;99825.81;5034656;28;20541;-51
2020/12/14 05:04:43;;;;;;;0.20;0.10;;;;;;;3.11;100.00;99828.47;5034267;28;20451;-51
2020/12/14 05:07:12;;;;;;;0.20;0.10;;;;;;;3.18;100.00;99831.06;5033473;28;20490;-52
2020/12/14 05:09:43;;;;;;;0.20;0.10;;;;;;;3.43;100.00;99831.78;5030268;28;20475;-51
2020/12/14 05:12:19;;;;;;;0.20;0.10;;;;;;;3.85;100.00;99848.94;5034305;28;20971;-52
2020/12/14 05:14:46;;;;;;;0.20;0.10;;;;;;;3.95;100.00;99848.84;5034284;28;20475;-51
2020/12/14 05:17:24;;;;;;;0.20;0.10;;;;;;;3.94;100.00;99858.50;5034506;28;20506;-52
2020/12/14 05:19:52;;;;;;;0.60;0.60;;;;;;;3.84;100.00;99855.09;5033747;28;20482;-52
2020/12/14 05:22:18;;;;;;;0.30;0.10;;;;;;;3.92;100.00;99859.41;5034669;28;20492;-50
2020/12/14 05:24:50;;;;;;;0.20;0.20;;;;;;;3.56;100.00;99858.78;5034122;28;20443;-50
2020/12/14 05:27:29;;;;;;;0.20;0.10;;;;;;;3.52;100.00;99857.09;5033826;28;20479;-50
2020/12/14 05:29:55;;;;;;;0.20;0.10;;;;;;;3.48;100.00;99864.13;5034237;28;20467;-50
2020/12/14 05:32:21;;;;;;;0.20;0.10;;;;;;;3.51;100.00;99871.09;5033647;28;20517;-52
2020/12/14 05:34:47;;;;;;;0.20;0.10;;;;;;;3.46;100.00;99865.03;5034146;28;20459;-51
2020/12/14 05:37:15;;;;;;;0.20;0.10;;;;;;;3.47;100.00;99872.03;5032127;28;20860;-51
2020/12/14 05:39:42;;;;;;;0.20;0.10;;;;;;;3.43;100.00;99865.06;5024289;28;20487;-50
2020/12/14 05:42:20;;;;;;;0.20;0.10;;;;;;;3.44;100.00;99861.53;5031025;28;20495;-51
2020/12/14 05:44:48;;;;;;;0.20;0.10;;;;;;;3.44;100.00;99864.16;5026651;28;20469;-51
2020/12/14 05:47:29;;;;;;;0.20;0.10;;;;;;;3.39;100.00;99856.28;5033909;28;20482;-50
2020/12/14 05:49:57;;;;;;;0.20;0.20;;;;;;;3.32;100.00;99851.09;5033685;28;20472;-51
2020/12/14 05:52:31;;;;;;;0.20;0.10;;;;;;;3.38;100.00;99846.66;5033377;28;20448;-51
2020/12/14 05:54:57;;;;;;;0.20;0.20;;;;;;;3.28;100.00;99845.84;5033415;28;20448;-51
2020/12/14 05:57:39;;;;;;;0.20;0.10;;;;;;;3.43;100.00;99842.28;5033253;28;20452;-50
2020/12/14 06:00:09;;;;;;;0.20;0.10;;;;;;;3.48;100.00;99840.47;5032744;28;20972;-50
2020/12/14 06:02:37;;;;;;;0.20;0.10;;;;;;;3.67;100.00;99842.94;5033265;28;20487;-51
2020/12/14 06:05:07;;;;;;;0.20;0.20;;;;;;;3.77;100.00;99842.88;5033373;28;20451;-50
2020/12/14 06:07:35;;;;;;;0.20;0.10;;;;;;;3.97;100.00;99841.81;5029118;28;20452;-50
2020/12/14 06:10:04;;;;;;;0.20;0.10;;;;;;;4.07;100.00;99836.47;5032406;28;20848;-50
2020/12/14 06:12:32;;;;;;;0.30;0.20;;;;;;;3.94;100.00;99845.34;5033335;28;20456;-50
2020/12/14 06:15:00;;;;;;;0.20;0.10;;;;;;;3.82;100.00;99848.09;5033284;28;20518;-50
2020/12/14 06:17:28;;;;;;;0.20;0.10;;;;;;;3.80;100.00;99844.59;5032824;28;20452;-50
2020/12/14 06:20:14;;;;;;;0.20;0.20;;;;;;;3.73;100.00;99854.31;5033064;28;20468;-51
2020/12/14 06:22:47;;;;;;;0.20;0.10;;;;;;;3.80;100.00;99848.09;5032659;28;20492;-50
2020/12/14 06:25:14;;;;;;;0.20;0.20;;;;;;;4.09;100.00;99857.47;5033056;28;20492;-51
2020/12/14 06:27:40;;;;;;;0.20;0.10;;;;;;;4.32;100.00;99855.50;5033097;28;20448;-50
2020/12/14 06:30:30;;;;;;;0.20;0.13;;;;;;;4.42;100.00;99859.78;5032793;28;20476;-51
2020/12/14 06:33:12;;;;;;;0.20;0.13;;;;;;;4.34;100.00;99864.25;5032714;28;20857;-51
2020/12/14 06:35:53;;;;;;;0.57;0.57;;;;;;;4.41;100.00;99867.72;5032421;28;20446;-51
2020/12/14 06:38:39;;;;;;;0.20;0.10;;;;;;;4.52;100.00;99871.06;5022332;28;20459;-50
2020/12/14 06:41:20;;;;;;;0.20;0.10;;;;;;;4.54;100.00;99863.19;5010607;28;20510;-51
2020/12/14 06:43:49;;;;;;;0.27;0.17;;;;;;;4.49;100.00;99865.84;5022060;28;20497;-51
2020/12/14 06:46:26;;;;;;;0.20;0.20;;;;;;;4.62;100.00;99870.09;5032263;28;20452;-51
2020/12/14 06:48:53;;;;;;;0.20;0.10;;;;;;;4.55;100.00;99873.69;5032508;28;20530;-50
2020/12/14 06:51:20;;;;;;;0.20;0.20;;;;;;;4.60;100.00;99866.59;5032406;28;20513;-51
2020/12/14 06:53:50;;;;;;;0.20;0.20;;;;;;;4.61;100.00;99870.09;5032487;28;20447;-50
2020/12/14 06:56:32;;;;;;;0.20;0.10;;;;;;;4.65;100.00;99877.94;5031098;28;20475;-51
2020/12/14 06:58:58;;;;;;;0.20;0.20;;;;;;;4.62;100.00;99874.47;5032652;28;20447;-51
2020/12/14 07:01:35;;;;;;;0.20;0.20;;;;;;;4.76;100.00;99872.56;5032021;28;20889;-51
2020/12/14 07:04:05;;;;;;;0.40;0.37;;;;;;;4.83;100.00;99876.00;5032482;28;20567;-50
2020/12/14 07:06:32;;;;;;;3.10;2.27;;;;;;;4.81;100.00;99891.81;5032174;28;20953;-51
2020/12/14 07:09:47;;;;;;;0.20;0.10;;;;;;;4.86;100.00;99884.72;5027914;28;20482;-50
2020/12/14 07:12:17;;;;;;;0.20;0.10;;;;;;;4.90;100.00;99883.78;5029078;28;20544;-52
2020/12/14 07:14:51;;;;;;;0.20;0.10;;;;;;;4.91;100.00;99879.41;5032006;28;20795;-50
2020/12/14 07:17:25;;;;;;;0.20;0.10;;;;;;;4.92;100.00;99889.91;5032106;28;20952;-51
2020/12/14 07:19:57;;;;;;;0.80;0.80;;;;;;;4.91;100.00;99884.66;5032106;28;20525;-50
2020/12/14 07:22:30;;;;;;;0.20;0.10;;;;;;;4.84;100.00;99878.63;5031979;28;20491;-51
2020/12/14 07:25:02;;;;;;;0.20;0.20;;;;;;;4.91;100.00;99880.28;5030683;28;20505;-52
2020/12/14 07:27:30;;;;;;;0.20;0.10;;;;;;;4.85;100.00;99885.63;5032049;28;21006;-51
2020/12/14 07:30:11;;;;;;;0.20;0.20;;;;;;;4.86;100.00;99881.22;5032256;28;20475;-51
2020/12/14 07:32:39;;;;;;;0.20;0.10;;;;;;;4.91;100.00;99887.31;5031732;28;20937;-51
2020/12/14 07:35:08;;;;;;;0.30;0.20;;;;;;;4.89;100.00;99897.84;5032229;28;20452;-53
2020/12/14 07:37:35;;;;;;;0.20;0.20;;;;;;;4.89;100.00;99891.72;5001893;28;20448;-51
2020/12/14 07:40:02;;;;;;;1.70;1.60;;;;;;;4.90;100.00;99891.69;5025394;28;20545;-51
2020/12/14 07:42:31;;;;;;;0.20;0.10;;;;;;;4.91;100.00;99896.06;5028071;28;20492;-51
2020/12/14 07:45:23;;;;;;;0.20;0.20;;;;;;;4.98;100.00;99894.25;5025655;28;20456;-51
2020/12/14 07:47:51;;;;;;;0.43;0.43;;;;;;;5.00;100.00;99901.25;5032012;28;20446;-51
2020/12/14 07:50:27;;;;;;;0.20;0.10;;;;;;;5.07;100.00;99907.28;5031920;28;20842;-52
2020/12/14 07:52:54;;;;;;;0.73;0.73;;;;;;;5.20;100.00;99900.09;5032081;28;20470;-51
2020/12/14 07:55:26;;;;;;;0.20;0.20;;;;;;;5.22;100.00;99909.75;5031704;28;20452;-51
2020/12/14 07:57:54;;;;;;;0.20;0.10;;;;;;;5.17;100.00;99910.69;5031917;28;20447;-52
2020/12/14 08:00:23;;;;;;;0.20;0.20;;;;;;;5.19;100.00;99908.91;5030670;28;20522;-51
2020/12/14 08:02:50;;;;;;;0.20;0.20;;;;;;;5.24;100.00;99913.22;5031509;28;20496;-54
2020/12/14 08:05:19;;;;;;;0.33;0.33;;;;;;;5.32;100.00;99915.75;5031978;28;20448;-51
2020/12/14 08:08:05;;;;;;;0.20;0.20;;;;;;;5.38;100.00;99917.44;5026385;28;20448;-52
2020/12/14 08:10:37;;;;;;;0.20;0.10;;;;;;;5.41;100.00;99918.28;5030377;28;20467;-51
2020/12/14 08:13:09;;;;;;;0.20;0.13;;;;;;;5.50;100.00;99919.91;5031564;28;20922;-51
2020/12/14 08:15:37;;;;;;;0.20;0.20;;;;;;;5.48;100.00;99919.94;5031849;28;20458;-51
2020/12/14 08:18:11;;;;;;;0.20;0.20;;;;;;;5.46;100.00;99924.34;5031845;28;20458;-51
2020/12/14 08:20:45;;;;;;;0.30;0.13;;;;;;;5.47;100.00;99919.94;5030647;28;20467;-52
2020/12/14 08:23:20;;;;;;;0.30;0.20;;;;;;;5.44;100.00;99925.25;5034615;28;21020;-51
2020/12/14 08:25:50;;;;;;;0.30;0.30;;;;;;;5.46;100.00;99926.09;5035314;28;20442;-51
2020/12/14 08:28:30;;;;;;;0.87;0.87;;;;;;;5.32;100.00;99928.91;5035422;28;20444;-51
2020/12/14 08:30:57;;;;;;;0.30;0.20;;;;;;;5.41;100.00;99928.81;5034853;28;20901;-51
2020/12/14 08:33:24;;;;;;;0.20;0.10;;;;;;;5.48;100.00;99924.31;5035340;28;20448;-51
2020/12/14 08:35:52;;;;;;;0.20;0.10;;;;;;;5.74;100.00;99921.31;5034977;28;20459;-50
2020/12/14 08:38:20;;;;;;;0.30;0.10;;;;;;;5.70;100.00;99924.88;5024848;28;20460;-52
2020/12/14 08:41:01;;;;;;;0.20;0.10;;;;;;;5.56;100.00;99920.69;5034317;28;20529;-51
2020/12/14 08:43:29;;;;;;;0.20;0.20;;;;;;;5.56;100.00;99925.09;5024543;28;20878;-52
2020/12/14 08:46:09;;;;;;;0.30;0.20;;;;;;;5.71;100.00;99924.00;5034945;28;20467;-51
2020/12/14 08:48:48;;;;;;;0.30;0.20;;;;;;;5.84;100.00;99933.47;5034730;28;20440;-53
2020/12/14 08:51:19;;;;;;;0.30;0.20;;;;;;;5.68;100.00;99926.69;5034848;28;20845;-51
2020/12/14 08:53:48;;;;;;;0.30;0.20;;;;;;;5.85;100.00;99929.94;5007438;28;20447;-51
2020/12/14 08:56:20;;;;;;;0.20;0.20;;;;;;;5.96;100.00;99933.31;5034527;28;20456;-51
2020/12/14 08:58:58;;;;;;;0.20;0.10;;;;;;;5.90;100.00;99933.44;5034502;28;20444;-51
2020/12/14 09:01:29;;;;;;;0.23;0.17;;;;;;;5.93;100.00;99938.66;5034413;28;20981;-51
2020/12/14 09:04:01;;;;;;;0.20;0.10;;;;;;;5.93;100.00;99936.88;5034738;28;20523;-51
2020/12/14 09:06:33;;;;;;;0.30;0.20;;;;;;;6.04;100.00;99930.56;5034516;28;20452;-50
2020/12/14 09:09:03;;;;;;;0.30;0.20;;;;;;;6.03;100.00;99939.34;5029991;28;20828;-52
2020/12/14 09:11:31;;;;;;;0.30;0.20;;;;;;;6.10;100.00;99931.31;5034030;28;20952;-50
2020/12/14 09:14:01;;;;;;;0.30;0.20;;;;;;;6.20;100.00;99932.94;5034272;28;20940;-51
2020/12/14 09:16:28;;;;;;;0.30;0.20;;;;;;;6.21;100.00;99928.53;5034415;28;20459;-51
2020/12/14 09:18:55;;;;;;;0.30;0.20;;;;;;;6.31;100.00;99929.25;5034440;28;20459;-50
2020/12/14 09:21:21;;;;;;;0.30;0.20;;;;;;;6.46;100.00;99927.22;5034138;28;20454;-53
2020/12/14 09:24:12;;;;;;;0.30;0.23;;;;;;;6.55;100.00;99926.16;5034318;28;20494;-51
2020/12/14 09:26:39;;;;;;;0.30;0.20;;;;;;;6.58;100.00;99928.75;5034287;28;20451;-51
2020/12/14 09:29:05;;;;;;;0.30;0.20;;;;;;;6.59;100.00;99927.00;5033583;28;20468;-51
2020/12/14 09:31:32;;;;;;;0.30;0.20;;;;;;;6.65;100.00;99933.00;5034167;28;20451;-51
2020/12/14 09:33:58;;;;;;;0.30;0.20;;;;;;;6.75;100.00;99939.00;5032969;28;20459;-51
2020/12/14 09:36:24;;;;;;;0.30;0.23;;;;;;;6.81;100.00;99929.19;5034180;28;20460;-51
2020/12/14 09:38:51;;;;;;;0.70;0.70;;;;;;;6.87;100.00;99927.34;5033877;28;20455;-51
2020/12/14 09:41:17;;;;;;;0.30;0.20;;;;;;;6.79;100.00;99920.41;5034582;28;20451;-51
2020/12/14 09:43:43;;;;;;;0.30;0.20;;;;;;;6.83;100.00;99927.38;5023769;28;20491;-53
2020/12/14 09:46:10;;;;;;;0.30;0.20;;;;;;;6.75;100.00;99931.06;5033885;28;20794;-51
2020/12/14 09:48:36;;;;;;;0.30;0.20;;;;;;;6.73;100.00;99923.19;5033825;28;20448;-52
2020/12/14 09:51:04;;;;;;;0.30;0.20;;;;;;;6.76;100.00;99927.53;5033800;28;20472;-51
2020/12/14 09:53:30;;;;;;;0.30;0.20;;;;;;;6.87;100.00;99928.22;5033531;28;20505;-51
2020/12/14 09:55:56;;;;;;;0.30;0.20;;;;;;;6.94;100.00;99932.44;5033452;28;20917;-51
2020/12/14 09:58:22;;;;;;;0.30;0.20;;;;;;;6.88;100.00;99934.38;5033247;28;20538;-52
2020/12/14 10:00:49;;;;;;;0.30;0.20;;;;;;;7.07;100.00;99923.38;5033319;28;20475;-51
2020/12/14 10:03:15;;;;;;;0.30;0.10;;;;;;;7.24;100.00;99924.81;5033356;28;20487;-51
2020/12/14 10:05:47;;;;;;;0.30;0.20;;;;;;;7.40;100.00;99923.56;5033493;28;20447;-51
2020/12/14 10:08:15;;;;;;;0.30;0.20;;;;;;;7.45;100.00;99924.34;5028341;28;20523;-52
2020/12/14 10:10:42;;;;;;;0.30;0.20;;;;;;;7.33;100.00;99925.50;5033151;28;20471;-51
2020/12/14 10:13:09;;;;;;;0.30;0.20;;;;;;;7.40;100.00;99924.47;5033434;28;20444;-50
2020/12/14 10:15:35;;;;;;;0.30;0.20;;;;;;;7.46;100.00;99931.38;5033256;28;20866;-50
2020/12/14 10:18:01;;;;;;;0.30;0.20;;;;;;;7.77;100.00;99931.56;5033047;28;20452;-51
2020/12/14 10:20:28;;;;;;;0.30;0.20;;;;;;;7.73;99.63;99933.41;5032968;28;20482;-51
2020/12/14 10:22:55;;;;;;;0.30;0.20;;;;;;;7.62;98.98;99931.91;5032990;28;20553;-51
2020/12/14 10:25:24;;;;;;;0.30;0.20;;;;;;;7.62;99.19;99931.91;5032873;28;20451;-51
2020/12/14 10:27:51;;;;;;;0.30;0.20;;;;;;;7.42;100.00;99935.88;5032875;28;20447;-52
2020/12/14 10:30:19;;;;;;;0.30;0.20;;;;;;;7.67;100.00;99924.72;5032724;28;20480;-51
2020/12/14 10:32:47;;;;;;;0.30;0.20;;;;;;;7.85;99.81;99921.69;5032975;28;20817;-51
2020/12/14 10:35:17;;;;;;;0.30;0.20;;;;;;;7.81;100.00;99925.31;5032706;28;20455;-50
2020/12/14 10:37:43;;;;;;;0.30;0.20;;;;;;;7.74;100.00;99918.41;5027139;28;20499;-52
2020/12/14 10:40:09;;;;;;;0.30;0.20;;;;;;;7.58;99.76;99920.53;5027275;28;20490;-51
2020/12/14 10:42:36;;;;;;;0.30;0.20;;;;;;;7.63;100.00;99918.66;5027586;28;20492;-51
2020/12/14 10:45:02;;;;;;;0.30;0.20;;;;;;;7.54;99.15;99924.16;5027280;28;20525;-50
2020/12/14 10:47:28;;;;;;;0.30;0.20;;;;;;;7.40;99.69;99913.91;5032814;28;20447;-51
2020/12/14 10:49:54;;;;;;;0.30;0.20;;;;;;;7.57;100.00;99921.44;5032675;28;20471;-51
2020/12/14 10:52:21;;;;;;;0.30;0.20;;;;;;;7.45;99.53;99913.78;5032837;28;20456;-51
2020/12/14 10:54:50;;;;;;;0.30;0.20;;;;;;;7.58;100.00;99907.31;5032686;28;20456;-53
2020/12/14 10:57:19;;;;;;;0.30;0.20;;;;;;;7.41;100.00;99909.47;5032439;28;20528;-51
2020/12/14 10:59:45;;;;;;;0.30;0.20;;;;;;;7.34;100.00;99911.38;5032595;28;20472;-50
2020/12/14 11:02:12;;;;;;;0.30;0.20;;;;;;;7.48;100.00;99919.00;5032575;28;20479;-51
2020/12/14 11:04:38;;;;;;;0.30;0.20;;;;;;;7.56;100.00;99905.63;5032205;28;20515;-51
2020/12/14 11:07:07;;;;;;;0.30;0.20;;;;;;;7.65;99.53;99913.31;5032448;28;20452;-51
2020/12/14 11:09:34;;;;;;;0.30;0.20;;;;;;;7.69;99.86;99905.31;5028886;28;20478;-51
2020/12/14 11:12:05;;;;;;;0.30;0.20;;;;;;;7.60;99.93;99900.22;5032102;28;20459;-53
2020/12/14 11:14:32;;;;;;;0.30;0.20;;;;;;;7.48;100.00;99903.13;5032431;28;20443;-51
2020/12/14 11:16:59;;;;;;;0.30;0.20;;;;;;;7.50;100.00;99900.44;5032176;28;20451;-51
2020/12/14 11:19:25;;;;;;;0.30;0.20;;;;;;;7.43;99.94;99899.72;5032520;28;20890;-52
2020/12/14 11:21:53;;;;;;;0.30;0.20;;;;;;;7.43;100.00;99892.66;5032718;28;20451;-56
2020/12/14 11:24:21;;;;;;;0.30;0.20;;;;;;;7.48;100.00;99896.97;5031906;28;20502;-57
2020/12/14 11:26:48;;;;;;;0.30;0.20;;;;;;;7.61;99.86;99887.84;5032244;28;20455;-58
2020/12/14 11:29:15;;;;;;;0.30;0.20;;;;;;;7.67;99.99;99885.06;5031883;28;21011;-58
2020/12/14 11:31:44;;;;;;;0.30;0.20;;;;;;;7.63;99.00;99876.34;5032359;28;20455;-58
2020/12/14 11:34:11;;;;;;;0.30;0.20;;;;;;;7.70;99.16;99883.22;5031905;28;20513;-58
2020/12/14 11:36:38;;;;;;;0.30;0.20;;;;;;;7.52;99.17;99874.84;5032289;28;20444;-57
2020/12/14 11:39:04;;;;;;;0.30;0.20;;;;;;;7.59;100.00;99874.66;5020770;28;20479;-58
2020/12/14 11:41:30;;;;;;;0.30;0.20;;;;;;;7.48;100.00;99874.03;5032065;28;20450;-58